createdAt,value
2023-03-17T00:01:54.810Z,7.70
2023-03-17T00:04:24.192Z,7.60
2023-03-17T00:06:53.386Z,7.60
2023-03-17T00:09:22.781Z,7.60
2023-03-17T00:11:51.163Z,7.60
2023-03-17T00:14:20.380Z,7.60
2023-03-17T00:16:52.692Z,7.60
2023-03-17T00:19:28.233Z,7.60
2023-03-17T00:21:56.435Z,7.60
2023-03-17T00:24:25.005Z,7.60
2023-03-17T00:26:53.316Z,7.60
2023-03-17T00:29:21.472Z,7.60
2023-03-17T00:31:51.257Z,7.60
2023-03-17T00:34:21.090Z,7.60
2023-03-17T00:36:51.769Z,7.70
2023-03-17T00:39:21.260Z,7.70
2023-03-17T00:41:49.607Z,7.70
2023-03-17T00:44:18.972Z,7.70
2023-03-17T00:46:47.149Z,7.70
2023-03-17T00:49:20.783Z,7.80
2023-03-17T00:51:49.874Z,7.80
2023-03-17T00:54:19.470Z,7.80
2023-03-17T00:56:48.590Z,7.80
2023-03-17T00:59:22.180Z,7.80
2023-03-17T01:01:51.235Z,7.90
2023-03-17T01:04:20.749Z,7.90
2023-03-17T01:06:50.457Z,7.90
2023-03-17T01:09:21.090Z,7.90
2023-03-17T01:11:49.676Z,7.90
2023-03-17T01:14:18.324Z,7.90
2023-03-17T01:16:47.794Z,7.90
2023-03-17T01:19:17.616Z,7.90
2023-03-17T01:21:48.526Z,7.90
2023-03-17T01:24:16.770Z,7.80
2023-03-17T01:26:44.835Z,7.80
2023-03-17T01:29:13.900Z,7.80
2023-03-17T01:31:42.657Z,7.80
2023-03-17T01:34:12.060Z,7.80
2023-03-17T01:36:41.373Z,7.80
2023-03-17T01:39:11.462Z,7.80
2023-03-17T01:41:40.229Z,7.80
2023-03-17T01:44:16.237Z,7.80
2023-03-17T01:46:45.470Z,7.80
2023-03-17T01:49:21.599Z,7.80
2023-03-17T01:51:58.041Z,7.70
2023-03-17T01:54:32.142Z,7.70
2023-03-17T01:57:04.941Z,7.70
2023-03-17T01:59:38.328Z,7.70
2023-03-17T02:02:10.848Z,7.70
2023-03-17T02:04:40.331Z,7.70
2023-03-17T02:07:09.646Z,7.60
2023-03-17T02:09:39.136Z,7.60
2023-03-17T02:12:09.772Z,7.60
2023-03-17T02:14:37.811Z,7.60
2023-03-17T02:17:06.637Z,7.60
2023-03-17T02:19:35.313Z,7.60
2023-03-17T02:22:05.323Z,7.50
2023-03-17T02:24:37.725Z,7.50
2023-03-17T02:27:12.318Z,7.50
2023-03-17T02:29:40.768Z,7.50
2023-03-17T02:32:10.029Z,7.50
2023-03-17T02:34:38.234Z,7.50
2023-03-17T02:37:08.813Z,7.50
2023-03-17T02:39:37.579Z,7.50
2023-03-17T02:42:06.156Z,7.50
2023-03-17T02:44:34.684Z,7.40
2023-03-17T02:47:03.310Z,7.40
2023-03-17T02:49:33.384Z,7.40
2023-03-17T02:52:02.058Z,7.40
2023-03-17T02:54:32.173Z,7.40
2023-03-17T02:57:01.185Z,7.40
2023-03-17T02:59:29.838Z,7.40
2023-03-17T03:01:58.884Z,7.40
2023-03-17T03:04:27.264Z,7.40
2023-03-17T03:06:55.894Z,7.40
2023-03-17T03:09:24.297Z,7.40
2023-03-17T03:11:53.840Z,7.40
2023-03-17T03:14:21.920Z,7.40
2023-03-17T03:16:50.308Z,7.40
2023-03-17T03:19:18.590Z,7.40
2023-03-17T03:21:47.707Z,7.40
2023-03-17T03:24:15.967Z,7.40
2023-03-17T03:26:44.206Z,7.40
2023-03-17T03:29:13.742Z,7.40
2023-03-17T03:31:42.264Z,7.40
2023-03-17T03:34:10.422Z,7.30
2023-03-17T03:36:38.969Z,7.30
2023-03-17T03:39:08.562Z,7.30
2023-03-17T03:41:36.699Z,7.30
2023-03-17T03:44:05.246Z,7.30
2023-03-17T03:46:35.171Z,7.20
2023-03-17T03:49:03.347Z,7.20
2023-03-17T03:51:32.015Z,7.20
2023-03-17T03:54:01.792Z,7.20
2023-03-17T03:56:29.823Z,7.20
2023-03-17T03:58:58.433Z,7.20
2023-03-17T04:01:27.422Z,7.20
2023-03-17T04:03:57.413Z,7.20
2023-03-17T04:06:25.969Z,7.20
2023-03-17T04:08:55.990Z,7.20
2023-03-17T04:11:25.703Z,7.20
2023-03-17T04:13:53.788Z,7.20
2023-03-17T04:16:22.422Z,7.20
2023-03-17T04:18:51.701Z,7.20
2023-03-17T04:21:21.660Z,7.20
2023-03-17T04:23:49.835Z,7.20
2023-03-17T04:26:18.819Z,7.10
2023-03-17T04:28:47.413Z,7.20
2023-03-17T04:31:15.712Z,7.20
2023-03-17T04:33:44.258Z,7.20
2023-03-17T04:36:19.346Z,7.20
2023-03-17T04:38:49.498Z,8.10
2023-03-17T04:41:19.400Z,7.20
2023-03-17T04:43:47.452Z,7.10
2023-03-17T04:46:16.782Z,7.10
2023-03-17T04:48:45.420Z,7.20
2023-03-17T04:51:13.958Z,7.10
2023-03-17T04:53:42.504Z,7.20
2023-03-17T04:56:12.150Z,7.20
2023-03-17T04:58:40.701Z,7.10
2023-03-17T05:01:09.202Z,7.10
2023-03-17T05:03:37.902Z,7.10
2023-03-17T05:06:07.088Z,7.10
2023-03-17T05:08:35.175Z,7.10
2023-03-17T05:11:03.860Z,7.10
2023-03-17T05:13:33.299Z,7.10
2023-03-17T05:16:02.691Z,7.10
2023-03-17T05:18:31.817Z,7.10
2023-03-17T05:20:59.859Z,7.10
2023-03-17T05:23:28.240Z,7.10
2023-03-17T05:25:56.954Z,7.10
2023-03-17T05:28:25.048Z,7.00
2023-03-17T05:30:55.252Z,7.00
2023-03-17T05:33:24.062Z,7.00
2023-03-17T05:35:52.462Z,7.00
2023-03-17T05:38:21.441Z,7.00
2023-03-17T05:40:52.735Z,6.90
2023-03-17T05:43:20.789Z,7.00
2023-03-17T05:45:51.044Z,7.80
2023-03-17T05:48:21.158Z,6.90
2023-03-17T05:50:49.762Z,6.90
2023-03-17T05:53:18.723Z,6.90
2023-03-17T05:55:47.517Z,6.90
2023-03-17T05:58:17.099Z,6.90
2023-03-17T06:00:46.264Z,6.80
2023-03-17T06:03:14.624Z,6.80
2023-03-17T06:05:44.697Z,6.80
2023-03-17T06:08:13.772Z,6.80
2023-03-17T06:10:42.369Z,6.80
2023-03-17T06:13:11.609Z,6.80
2023-03-17T06:15:40.217Z,6.80
2023-03-17T06:18:08.517Z,6.80
2023-03-17T06:20:37.133Z,6.80
2023-03-17T06:23:07.144Z,6.80
2023-03-17T06:25:37.513Z,6.80
2023-03-17T06:28:06.834Z,6.80
2023-03-17T06:30:37.538Z,6.90
2023-03-17T06:33:08.785Z,6.90
2023-03-17T06:35:37.288Z,6.90
2023-03-17T06:38:07.174Z,6.90
2023-03-17T06:40:35.323Z,6.90
2023-03-17T06:43:03.961Z,6.90
2023-03-17T06:45:34.243Z,6.90
2023-03-17T06:48:03.218Z,6.90
2023-03-17T06:50:31.898Z,7.00
2023-03-17T06:53:00.549Z,7.00
2023-03-17T06:55:30.711Z,7.00
2023-03-17T06:58:00.981Z,7.00
2023-03-17T07:00:30.417Z,7.00
2023-03-17T07:02:58.648Z,7.00
2023-03-17T07:05:27.421Z,7.00
2023-03-17T07:07:56.304Z,7.10
2023-03-17T07:10:24.847Z,7.00
2023-03-17T07:12:54.789Z,7.10
2023-03-17T07:15:24.111Z,7.10
2023-03-17T07:17:52.314Z,7.10
2023-03-17T07:20:21.092Z,7.10
2023-03-17T07:22:49.631Z,7.10
2023-03-17T07:25:17.746Z,7.20
2023-03-17T07:27:46.332Z,7.20
2023-03-17T07:30:19.089Z,7.30
2023-03-17T07:32:48.468Z,7.30
2023-03-17T07:35:18.154Z,7.30
2023-03-17T07:37:46.260Z,7.40
2023-03-17T07:40:14.700Z,7.40
2023-03-17T07:42:43.600Z,7.50
2023-03-17T07:45:13.363Z,7.50
2023-03-17T07:47:42.800Z,7.60
2023-03-17T07:50:12.062Z,7.60
2023-03-17T07:52:41.544Z,7.70
2023-03-17T07:55:13.045Z,7.70
2023-03-17T07:57:41.427Z,7.80
2023-03-17T08:00:11.239Z,7.90
2023-03-17T08:02:40.314Z,7.90
2023-03-17T08:05:11.569Z,8.00
2023-03-17T08:07:40.633Z,8.00
2023-03-17T08:10:11.679Z,8.10
2023-03-17T08:12:40.586Z,8.10
2023-03-17T08:15:09.664Z,8.20
2023-03-17T08:17:38.103Z,8.30
2023-03-17T08:20:07.025Z,8.30
2023-03-17T08:22:37.231Z,8.40
2023-03-17T08:25:05.787Z,8.40
2023-03-17T08:27:34.466Z,8.50
2023-03-17T08:30:03.582Z,8.50
2023-03-17T08:32:32.253Z,8.50
2023-03-17T08:35:00.939Z,8.60
2023-03-17T08:37:29.002Z,8.60
2023-03-17T08:39:59.546Z,8.60
2023-03-17T08:42:27.617Z,8.70
2023-03-17T08:44:56.149Z,8.70
2023-03-17T08:47:24.922Z,8.70
2023-03-17T08:49:53.856Z,8.70
2023-03-17T08:52:22.863Z,8.80
2023-03-17T08:54:51.192Z,8.80
2023-03-17T08:57:21.268Z,8.90
2023-03-17T08:59:49.866Z,8.90
2023-03-17T09:02:18.164Z,9.00
2023-03-17T09:04:47.064Z,9.00
2023-03-17T09:07:15.748Z,9.00
2023-03-17T09:09:44.559Z,9.10
2023-03-17T09:12:13.229Z,9.10
2023-03-17T09:14:44.503Z,9.20
2023-03-17T09:17:14.487Z,9.20
2023-03-17T09:19:43.992Z,9.30
2023-03-17T09:22:14.673Z,9.40
2023-03-17T09:24:43.817Z,9.40
2023-03-17T09:27:12.248Z,9.50
2023-03-17T09:29:40.906Z,9.50
2023-03-17T09:32:10.963Z,9.60
2023-03-17T09:34:39.108Z,9.70
2023-03-17T09:37:07.783Z,9.70
2023-03-17T09:39:36.538Z,9.80
2023-03-17T09:42:19.087Z,9.90
2023-03-17T09:45:06.024Z,10.00
2023-03-17T09:48:07.433Z,10.00
2023-03-17T09:50:42.194Z,10.10
2023-03-17T09:53:17.874Z,10.20
2023-03-17T09:55:49.678Z,10.20
2023-03-17T09:58:21.499Z,10.30
2023-03-17T10:00:49.751Z,10.40
2023-03-17T10:03:20.002Z,10.50
2023-03-17T10:05:48.662Z,10.60
2023-03-17T10:08:30.500Z,10.70
2023-03-17T10:11:09.954Z,10.70
2023-03-17T10:13:52.274Z,10.80
2023-03-17T10:16:23.245Z,10.90
2023-03-17T10:18:57.505Z,11.00
2023-03-17T10:21:31.034Z,11.00
2023-03-17T10:24:00.152Z,11.10
2023-03-17T10:26:32.910Z,11.20
2023-03-17T10:29:04.619Z,11.30
2023-03-17T10:31:35.591Z,11.30
2023-03-17T10:34:16.036Z,11.40
2023-03-17T10:36:47.056Z,11.50
2023-03-17T10:39:18.768Z,11.60
2023-03-17T10:41:55.623Z,11.70
2023-03-17T10:44:39.527Z,11.80
2023-03-17T10:47:20.828Z,12.00
2023-03-17T10:49:52.083Z,12.10
2023-03-17T10:52:24.658Z,12.20
2023-03-17T10:54:52.711Z,12.30
2023-03-17T10:57:22.645Z,12.40
2023-03-17T10:59:53.885Z,12.40
2023-03-17T11:02:26.229Z,12.60
2023-03-17T11:05:05.480Z,12.60
2023-03-17T11:07:38.263Z,12.80
2023-03-17T11:10:18.502Z,12.90
2023-03-17T11:12:49.399Z,13.00
2023-03-17T11:15:20.637Z,13.20
2023-03-17T11:17:56.059Z,13.30
2023-03-17T11:20:45.787Z,13.40
2023-03-17T11:23:26.206Z,13.50
2023-03-17T11:26:03.148Z,13.60
2023-03-17T11:28:39.352Z,13.60
2023-03-17T11:31:15.289Z,13.60
2023-03-17T11:33:57.269Z,13.60
2023-03-17T11:36:41.243Z,13.60
2023-03-17T11:39:14.651Z,13.70
2023-03-17T11:42:03.288Z,13.70
2023-03-17T11:45:03.855Z,13.70
2023-03-17T11:47:47.364Z,13.80
2023-03-17T11:50:28.469Z,13.90
2023-03-17T11:53:11.467Z,14.00
2023-03-17T11:55:47.463Z,14.20
2023-03-17T11:58:24.598Z,14.40
2023-03-17T12:00:57.617Z,14.60
2023-03-17T12:03:34.011Z,14.70
2023-03-17T12:06:06.172Z,14.90
2023-03-17T12:08:42.547Z,15.00
2023-03-17T12:11:15.341Z,15.10
2023-03-17T12:13:48.202Z,15.30
2023-03-17T12:16:21.782Z,15.50
2023-03-17T12:18:59.241Z,15.60
2023-03-17T12:21:33.145Z,15.80
2023-03-17T12:24:08.092Z,16.00
2023-03-17T12:26:40.014Z,16.20
2023-03-17T12:29:15.122Z,16.40
2023-03-17T12:31:48.159Z,16.60
2023-03-17T12:34:22.394Z,16.80
2023-03-17T12:36:50.961Z,16.90
2023-03-17T12:39:27.761Z,17.10
2023-03-17T12:42:18.588Z,17.30
2023-03-17T12:45:02.553Z,17.60
2023-03-17T12:47:50.964Z,17.70
2023-03-17T12:50:44.940Z,18.00
2023-03-17T12:53:31.362Z,18.10
2023-03-17T12:56:08.666Z,18.40
2023-03-17T12:58:40.566Z,18.60
2023-03-17T13:01:18.422Z,18.70
2023-03-17T13:04:02.533Z,18.90
2023-03-17T13:06:34.792Z,19.10
2023-03-17T13:09:45.017Z,19.10
2023-03-17T13:12:52.580Z,19.30
2023-03-17T13:15:32.377Z,19.40
2023-03-17T13:18:28.985Z,19.50
2023-03-17T13:21:13.678Z,19.60
2023-03-17T13:23:45.107Z,19.70
2023-03-17T13:26:15.039Z,19.70
2023-03-17T13:28:47.362Z,19.70
2023-03-17T13:31:37.163Z,19.70
2023-03-17T13:34:14.276Z,19.70
2023-03-17T13:37:02.919Z,19.60
2023-03-17T13:39:59.957Z,19.60
2023-03-17T13:43:03.582Z,19.50
2023-03-17T13:45:38.820Z,19.40
2023-03-17T13:48:36.381Z,19.40
2023-03-17T13:51:17.732Z,19.40
2023-03-17T13:53:51.026Z,19.30
2023-03-17T13:56:25.460Z,19.30
2023-03-17T13:59:06.308Z,19.30
2023-03-17T14:01:41.300Z,19.30
2023-03-17T14:04:20.745Z,19.20
2023-03-17T14:06:51.506Z,19.20
2023-03-17T14:09:39.376Z,19.20
2023-03-17T14:12:14.964Z,19.30
2023-03-17T14:14:50.432Z,19.30
2023-03-17T14:17:23.713Z,19.40
2023-03-17T14:20:06.840Z,19.40
2023-03-17T14:22:43.796Z,19.50
2023-03-17T14:25:18.705Z,19.50
2023-03-17T14:27:49.930Z,19.60
2023-03-17T14:30:21.044Z,19.60
2023-03-17T14:32:52.622Z,19.70
2023-03-17T14:35:22.199Z,19.80
2023-03-17T14:37:50.823Z,19.90
2023-03-17T14:40:24.179Z,20.00
2023-03-17T14:42:52.836Z,20.00
2023-03-17T14:45:23.841Z,20.10
2023-03-17T14:47:53.304Z,20.20
2023-03-17T14:50:27.906Z,20.20
2023-03-17T14:52:57.062Z,20.30
2023-03-17T14:55:36.275Z,20.30
2023-03-17T14:58:11.496Z,20.30
2023-03-17T15:00:45.678Z,20.30
2023-03-17T15:03:22.836Z,20.30
2023-03-17T15:05:52.826Z,20.30
2023-03-17T15:08:41.445Z,20.30
2023-03-17T15:11:17.698Z,20.30
2023-03-17T15:13:46.712Z,20.30
2023-03-17T15:16:19.763Z,20.30
2023-03-17T15:18:49.067Z,20.30
2023-03-17T15:21:31.191Z,20.30
2023-03-17T15:23:59.286Z,20.30
2023-03-17T15:26:32.653Z,20.30
2023-03-17T15:29:01.440Z,20.30
2023-03-17T15:31:31.259Z,20.30
2023-03-17T15:33:59.894Z,20.30
2023-03-17T15:36:33.003Z,20.30
2023-03-17T15:39:01.760Z,20.30
2023-03-17T15:41:30.408Z,20.40
2023-03-17T15:43:58.531Z,20.30
2023-03-17T15:46:31.345Z,20.40
2023-03-17T15:48:59.654Z,20.40
2023-03-17T15:51:30.300Z,20.50
2023-03-17T15:53:59.100Z,20.60
2023-03-17T15:56:27.361Z,20.70
2023-03-17T15:58:56.006Z,20.90
2023-03-17T16:01:27.627Z,21.00
2023-03-17T16:03:56.168Z,21.10
2023-03-17T16:06:29.748Z,21.30
2023-03-17T16:08:59.207Z,21.40
2023-03-17T16:11:32.332Z,21.50
2023-03-17T16:14:01.314Z,21.50
2023-03-17T16:16:34.034Z,21.40
2023-03-17T16:19:03.102Z,21.40
2023-03-17T16:21:31.760Z,21.20
2023-03-17T16:24:01.374Z,21.10
2023-03-17T16:26:29.988Z,20.90
2023-03-17T16:28:58.604Z,20.70
2023-03-17T16:31:29.786Z,20.60
2023-03-17T16:33:58.188Z,20.40
2023-03-17T16:36:26.921Z,20.20
2023-03-17T16:38:55.719Z,20.00
2023-03-17T16:41:28.051Z,19.90
2023-03-17T16:44:01.241Z,19.70
2023-03-17T16:46:34.893Z,19.60
2023-03-17T16:49:04.555Z,19.40
2023-03-17T16:51:32.888Z,19.30
2023-03-17T16:54:01.496Z,19.20
2023-03-17T16:56:31.612Z,19.00
2023-03-17T16:59:00.407Z,18.90
2023-03-17T17:01:30.641Z,18.70
2023-03-17T17:03:59.322Z,18.60
2023-03-17T17:06:27.932Z,18.50
2023-03-17T17:08:57.172Z,18.40
2023-03-17T17:11:25.266Z,18.40
2023-03-17T17:13:54.746Z,18.20
2023-03-17T17:16:27.804Z,18.20
2023-03-17T17:18:56.409Z,17.70
2023-03-17T17:21:25.093Z,18.00
2023-03-17T17:23:53.530Z,17.90
2023-03-17T17:26:22.295Z,17.80
2023-03-17T17:28:50.734Z,17.70
2023-03-17T17:31:20.497Z,17.70
2023-03-17T17:33:48.649Z,17.60
2023-03-17T17:36:18.361Z,17.50
2023-03-17T17:38:46.874Z,17.50
2023-03-17T17:41:17.042Z,17.40
2023-03-17T17:43:46.301Z,17.30
2023-03-17T17:46:17.968Z,17.30
2023-03-17T17:48:48.260Z,17.20
2023-03-17T17:51:16.397Z,17.10
2023-03-17T17:53:44.717Z,17.10
2023-03-17T17:56:15.787Z,17.00
2023-03-17T17:58:45.880Z,17.00
2023-03-17T18:01:20.083Z,16.90
2023-03-17T18:03:50.458Z,16.90
2023-03-17T18:06:18.841Z,16.80
2023-03-17T18:08:47.129Z,16.80
2023-03-17T18:11:15.284Z,16.70
2023-03-17T18:13:43.386Z,16.60
2023-03-17T18:16:15.192Z,16.60
2023-03-17T18:18:45.646Z,16.60
2023-03-17T18:21:15.607Z,16.60
2023-03-17T18:23:47.146Z,16.60
2023-03-17T18:26:17.646Z,16.50
2023-03-17T18:28:47.426Z,16.50
2023-03-17T18:31:20.429Z,16.40
2023-03-17T18:33:51.764Z,16.40
2023-03-17T18:36:22.377Z,16.40
2023-03-17T18:38:50.607Z,16.30
2023-03-17T18:41:18.916Z,16.30
2023-03-17T18:43:47.528Z,16.30
2023-03-17T18:46:16.342Z,16.30
2023-03-17T18:48:45.071Z,16.20
2023-03-17T18:51:13.174Z,16.20
2023-03-17T18:53:43.152Z,16.20
2023-03-17T18:56:11.592Z,16.20
2023-03-17T18:58:39.704Z,16.10
2023-03-17T19:01:07.996Z,16.10
2023-03-17T19:03:36.813Z,16.10
2023-03-17T19:06:13.733Z,16.10
2023-03-17T19:08:44.059Z,16.00
2023-03-17T19:11:13.594Z,16.00
2023-03-17T19:13:42.947Z,16.00
2023-03-17T19:16:11.754Z,15.90
2023-03-17T19:18:42.217Z,15.90
2023-03-17T19:21:11.653Z,15.90
2023-03-17T19:23:40.011Z,15.80
2023-03-17T19:26:10.509Z,15.80
2023-03-17T19:28:38.639Z,15.80
2023-03-17T19:31:07.489Z,15.70
2023-03-17T19:33:35.766Z,15.70
2023-03-17T19:36:09.559Z,15.70
2023-03-17T19:38:37.952Z,15.70
2023-03-17T19:41:07.292Z,15.60
2023-03-17T19:43:41.114Z,15.50
2023-03-17T19:46:11.647Z,15.60
2023-03-17T19:48:40.676Z,15.50
2023-03-17T19:51:09.576Z,15.50
2023-03-17T19:53:38.412Z,15.50
2023-03-17T19:56:07.726Z,15.40
2023-03-17T19:58:41.126Z,15.40
2023-03-17T20:01:09.659Z,15.40
2023-03-17T20:03:42.780Z,15.30
2023-03-17T20:06:11.451Z,15.20
2023-03-17T20:08:40.770Z,15.20
2023-03-17T20:11:08.905Z,15.20
2023-03-17T20:13:38.646Z,15.10
2023-03-17T20:16:08.400Z,15.00
2023-03-17T20:18:37.544Z,15.00
2023-03-17T20:21:06.708Z,14.90
2023-03-17T20:23:35.511Z,14.90
2023-03-17T20:26:03.752Z,14.80
2023-03-17T20:28:33.034Z,14.80
2023-03-17T20:31:05.926Z,14.70
2023-03-17T20:33:34.883Z,14.70
2023-03-17T20:36:03.226Z,14.70
2023-03-17T20:38:33.962Z,14.70
2023-03-17T20:41:14.614Z,14.60
2023-03-17T20:43:42.815Z,14.60
2023-03-17T20:46:16.099Z,14.60
2023-03-17T20:48:47.044Z,14.60
2023-03-17T20:51:16.873Z,14.60
2023-03-17T20:53:46.754Z,14.60
2023-03-17T20:56:16.516Z,14.60
2023-03-17T20:58:45.901Z,14.60
2023-03-17T21:01:18.273Z,14.50
2023-03-17T21:03:48.300Z,14.50
2023-03-17T21:06:17.200Z,14.50
2023-03-17T21:08:46.605Z,14.50
2023-03-17T21:11:17.693Z,14.50
2023-03-17T21:13:46.665Z,14.40
2023-03-17T21:16:21.270Z,14.40
2023-03-17T21:18:49.684Z,14.30
2023-03-17T21:21:18.558Z,14.30
2023-03-17T21:23:47.267Z,14.20
2023-03-17T21:26:16.562Z,14.20
2023-03-17T21:28:45.653Z,14.10
2023-03-17T21:31:15.985Z,14.10
2023-03-17T21:33:49.063Z,14.00
2023-03-17T21:36:17.331Z,13.90
2023-03-17T21:38:45.626Z,13.90
2023-03-17T21:41:24.732Z,13.80
2023-03-17T21:43:53.325Z,13.50
2023-03-17T21:46:21.961Z,13.70
2023-03-17T21:48:51.908Z,13.60
2023-03-17T21:51:20.642Z,13.60
2023-03-17T21:53:49.041Z,13.50
2023-03-17T21:56:17.634Z,13.40
2023-03-17T21:58:45.752Z,13.40
2023-03-17T22:01:15.182Z,13.30
2023-03-17T22:03:43.385Z,13.30
2023-03-17T22:06:14.953Z,13.20
2023-03-17T22:08:43.130Z,13.10
2023-03-17T22:11:13.760Z,13.10
2023-03-17T22:13:42.022Z,13.00
2023-03-17T22:16:10.635Z,13.00
2023-03-17T22:18:39.762Z,12.90
2023-03-17T22:21:10.131Z,13.00
2023-03-17T22:23:42.608Z,12.90
2023-03-17T22:26:13.686Z,12.90
2023-03-17T22:28:42.299Z,12.90
2023-03-17T22:31:14.640Z,12.80
2023-03-17T22:33:42.918Z,12.80
2023-03-17T22:36:11.537Z,12.70
2023-03-17T22:38:41.381Z,12.70
2023-03-17T22:41:13.057Z,12.60
2023-03-17T22:43:41.762Z,12.60
2023-03-17T22:46:10.830Z,12.60
2023-03-17T22:48:40.679Z,12.50
2023-03-17T22:51:11.305Z,12.50
2023-03-17T22:53:42.044Z,12.40
2023-03-17T22:56:12.574Z,12.40
2023-03-17T22:58:41.483Z,12.40
2023-03-17T23:01:12.709Z,12.40
2023-03-17T23:03:42.018Z,12.40
2023-03-17T23:06:13.618Z,12.30
2023-03-17T23:08:44.526Z,12.30
2023-03-17T23:11:15.326Z,12.30
2023-03-17T23:13:43.427Z,12.30
2023-03-17T23:16:12.619Z,12.30
2023-03-17T23:18:41.512Z,12.30
2023-03-17T23:21:10.306Z,12.30
2023-03-17T23:23:39.682Z,12.30
2023-03-17T23:26:09.350Z,12.30
2023-03-17T23:28:37.415Z,12.30
2023-03-17T23:31:06.503Z,12.20
2023-03-17T23:33:35.444Z,12.30
2023-03-17T23:36:04.097Z,12.20
2023-03-17T23:38:32.773Z,12.20
2023-03-17T23:41:01.388Z,12.20
2023-03-17T23:43:31.404Z,12.20
2023-03-17T23:45:59.572Z,12.10
2023-03-17T23:48:28.794Z,12.10
2023-03-17T23:50:57.237Z,12.10
2023-03-17T23:53:26.976Z,12.10
2023-03-17T23:55:55.523Z,12.00
2023-03-17T23:58:24.416Z,12.00
